The Deacon — WAK9812 — position and weather

sailwx.info

Track history (hours):
 
Tides and Currents Weather Stations Pressure Air Temp Water Temp Dewpoint Dewpoint Depression Visibility Wind Speed Wind Dir Waves Ship Positions

The Deacon

Owner: G & H Towing Company, GALVESTON, TX. More information available from US FCC via Universal Licensing System and Coast Guard Vessel Documentation Center.

Last reported at 2018-Jun-21 21:29 UTC. Time now 2018-Jun-21 21:37 UTC.
Position N 29°19' W 094°47'.

Length 27 m; draft 5.2 m.

Type: Tug. MMSI: 366922110.

Date/timePositionNaut miles runAvg speedWind from/ knotsBaromVisibWave heightAir tempDewpointWater temp
2018-Jun-21 21:29N 29°19' W 094°47'0 0.0
2018-Jun-21 20:59N 29°19' W 094°47'0 0.0
2018-Jun-21 20:29N 29°19' W 094°47'0 0.0
2018-Jun-21 19:59N 29°19' W 094°47'0 0.0
2018-Jun-21 19:26N 29°19' W 094°47'0 0.0
2018-Jun-21 18:56N 29°19' W 094°47'0 0.0
2018-Jun-21 18:29N 29°19' W 094°47'0 0.0
2018-Jun-21 17:59N 29°19' W 094°47'2 4.6
2018-Jun-21 17:30N 29°21' W 094°47'5 8.5
2018-Jun-21 16:53N 29°22' W 094°53'0 0.1
2018-Jun-21 16:27N 29°22' W 094°53'2 3.5
2018-Jun-21 16:00N 29°23' W 094°52'5 9.3
2018-Jun-21 15:30N 29°21' W 094°47'2 0.5
2018-Jun-21 12:22N 29°19' W 094°47'0 0.7
2018-Jun-21 11:58N 29°19' W 094°47'0 0.0
2018-Jun-21 11:28N 29°19' W 094°47'0 0.0
2018-Jun-21 10:58N 29°19' W 094°47'0 0.0
2018-Jun-21 10:25N 29°19' W 094°47'0 0.0
2018-Jun-21 09:55N 29°19' W 094°47'0 0.0
2018-Jun-21 09:25N 29°19' W 094°47'0 0.0
2018-Jun-21 08:52N 29°19' W 094°47'0 0.0
2018-Jun-21 08:28N 29°19' W 094°47'0 0.0
2018-Jun-21 08:00N 29°19' W 094°47'0 0.0
2018-Jun-21 07:30N 29°19' W 094°47'0 0.0
2018-Jun-21 06:57N 29°19' W 094°47'1 2.2
2018-Jun-21 06:30N 29°19' W 094°48'1 1.2
2018-Jun-21 05:56N 29°18' W 094°49'0 0.5
2018-Jun-21 05:30N 29°19' W 094°49'2 0.7
2018-Jun-21 03:19N 29°19' W 094°47'6 2.5
2018-Jun-21 00:59N 29°13' W 094°47'5 7.9
2018-Jun-21 00:24N 29°11' W 094°52'3 8.0
2018-Jun-21 00:00N 29°09' W 094°55'4 7.9
2018-Jun-20 23:30N 29°07' W 094°59'4 7.7
2018-Jun-20 23:00N 29°05' W 095°02'4 7.3
2018-Jun-20 22:30N 29°02' W 095°05'4 8.0
2018-Jun-20 22:00N 28°60' W 095°09'4 8.3
2018-Jun-20 21:30N 28°57' W 095°12'31 1.7
2018-Jun-20 03:02N 29°19' W 094°47'0 0.5
2018-Jun-20 02:59N 29°19' W 094°47'6 6.2
2018-Jun-20 01:58N 29°22' W 094°54'1 1.7
2018-Jun-20 01:19N 29°22' W 094°55'1 1.6
2018-Jun-20 01:00N 29°22' W 094°54'1 0.4
2018-Jun-19 22:55N 29°22' W 094°53'0 0.1
2018-Jun-19 21:50N 29°22' W 094°53'1 1.4
2018-Jun-19 21:15N 29°23' W 094°53'1 5.2
2018-Jun-19 20:59N 29°23' W 094°52'1 0.8
2018-Jun-19 19:12N 29°22' W 094°53'0 1.5
2018-Jun-19 19:01N 29°23' W 094°53'0 0.3
2018-Jun-19 18:26N 29°23' W 094°53'0 0.0
2018-Jun-19 17:52N 29°23' W 094°53'1 1.8
2018-Jun-19 17:30N 29°22' W 094°53'0 0.3
2018-Jun-19 17:00N 29°22' W 094°53'1 0.3
2018-Jun-19 14:51N 29°23' W 094°54'1 2.2
2018-Jun-19 14:30N 29°22' W 094°53'0 0.1
2018-Jun-19 13:38N 29°22' W 094°54'0 0.0
2018-Jun-19 13:30N 29°22' W 094°54'0 0.1
2018-Jun-19 12:58N 29°22' W 094°53'6 0.9
2018-Jun-19 05:43N 29°19' W 094°47'1 6.1
2018-Jun-19 05:30N 29°20' W 094°46'1910.3
2018-Jun-19 03:37N 29°37' W 094°58'1 8.7
2018-Jun-19 03:30N 29°37' W 094°59'2 3.3
2018-Jun-19 02:54N 29°37' W 095°01'0 0.3
2018-Jun-19 02:28N 29°37' W 095°01'1 2.5
2018-Jun-19 02:00N 29°37' W 095°00'1 2.6
2018-Jun-19 01:28N 29°37' W 094°58'15 9.6
2018-Jun-18 23:56N 29°24' W 094°49'4 9.5
2018-Jun-18 23:31N 29°21' W 094°47'2 0.1
2018-Jun-18 03:54N 29°19' W 094°47'6 4.0
2018-Jun-18 02:16N 29°22' W 094°53'2 7.7
2018-Jun-18 02:01N 29°22' W 094°51'5 2.4
2018-Jun-17 23:57N 29°19' W 094°47'1 1.7
2018-Jun-17 23:22N 29°19' W 094°48'1 2.1
2018-Jun-17 23:00N 29°19' W 094°47'0 0.0
2018-Jun-17 17:02N 29°19' W 094°47'1 6.1
2018-Jun-17 16:56N 29°19' W 094°48'1 1.8
2018-Jun-17 16:30N 29°19' W 094°49'0 0.1
2018-Jun-17 16:00N 29°19' W 094°49'1 2.8
2018-Jun-17 15:29N 29°19' W 094°47'0 0.4
2018-Jun-17 15:00N 29°19' W 094°47'0 0.0
2018-Jun-17 00:13N 29°19' W 094°47'6 6.2
2018-Jun-16 23:14N 29°22' W 094°54'0 1.0
2018-Jun-16 22:59N 29°22' W 094°54'0 0.0
2018-Jun-16 22:28N 29°22' W 094°54'1 1.3
2018-Jun-16 21:41N 29°23' W 094°53'0 0.0
2018-Jun-16 21:26N 29°23' W 094°53'0 0.0
2018-Jun-16 20:20N 29°23' W 094°53'0 0.0
2018-Jun-16 19:39N 29°23' W 094°53'0 0.0
2018-Jun-16 00:04N 29°23' W 094°53'1 5.6
2018-Jun-15 23:58N 29°22' W 094°53'0 0.1
2018-Jun-15 23:30N 29°22' W 094°53'0 0.6
2018-Jun-15 23:00N 29°22' W 094°53'0 0.2
2018-Jun-15 20:25N 29°23' W 094°53'2 3.9
2018-Jun-15 19:56N 29°22' W 094°51'4 7.9
2018-Jun-15 19:30N 29°21' W 094°47'2 0.2
2018-Jun-15 10:15N 29°19' W 094°47'2 1.4
2018-Jun-15 09:09N 29°19' W 094°49'0 1.7
2018-Jun-15 09:00N 29°19' W 094°48'1 2.4
2018-Jun-15 08:28N 29°19' W 094°47'0 0.0
2018-Jun-15 07:23N 29°19' W 094°47'0 0.0
2018-Jun-15 05:32N 29°19' W 094°47'0 0.2
2018-Jun-15 05:30N 29°19' W 094°47'1 2.4
2018-Jun-15 05:00N 29°19' W 094°48'0 0.1
2018-Jun-15 04:30N 29°19' W 094°48'1 1.0
2018-Jun-15 04:00N 29°19' W 094°48'0 0.0
2018-Jun-14 23:58N 29°19' W 094°48'2 3.4
2018-Jun-14 23:29N 29°20' W 094°46'6 7.5
2018-Jun-14 22:38N 29°22' W 094°54'1 6.7
2018-Jun-14 22:29N 29°22' W 094°55'0 0.2
2018-Jun-14 21:46N 29°22' W 094°55'1 3.2
2018-Jun-14 21:28N 29°22' W 094°54'1 0.4
2018-Jun-14 18:50N 29°23' W 094°53'4 1.5
2018-Jun-14 16:26N 29°22' W 094°49'3 7.7
2018-Jun-14 16:00N 29°19' W 094°47'2 3.9
2018-Jun-14 15:29N 29°19' W 094°49'0 0.1
2018-Jun-14 15:00N 29°19' W 094°49'0 0.0
2018-Jun-14 14:30N 29°19' W 094°49'3 1.5
2018-Jun-14 12:11N 29°21' W 094°46'2 0.6
2018-Jun-14 09:23N 29°19' W 094°47'3 6.6
2018-Jun-14 08:52N 29°22' W 094°49'4 7.6
2018-Jun-14 08:24N 29°22' W 094°53'0 0.1
2018-Jun-14 08:00N 29°22' W 094°53'1 2.8
2018-Jun-14 07:30N 29°23' W 094°52'5 9.4
2018-Jun-14 07:00N 29°21' W 094°47'2 3.0
2018-Jun-14 06:27N 29°19' W 094°47'0 0.0
2018-Jun-14 06:00N 29°19' W 094°47'0 0.0
2018-Jun-14 05:27N 29°19' W 094°47'0 0.0
2018-Jun-14 04:57N 29°19' W 094°47'0 0.0
2018-Jun-14 04:24N 29°19' W 094°47'0 0.0
2018-Jun-14 04:00N 29°19' W 094°47'0 0.0
2018-Jun-14 03:27N 29°19' W 094°47'0 0.0
2018-Jun-14 02:48N 29°19' W 094°47'0 0.0
2018-Jun-14 02:27N 29°19' W 094°47'0 0.0
2018-Jun-14 02:00N 29°19' W 094°47'0 0.0
2018-Jun-14 01:24N 29°19' W 094°47'0 0.0
2018-Jun-14 01:00N 29°19' W 094°47'0 0.0
2018-Jun-14 00:30N 29°19' W 094°47'0 0.0
2018-Jun-13 23:57N 29°19' W 094°47'0 0.0
2018-Jun-13 23:30N 29°19' W 094°47'0 0.0
2018-Jun-13 23:00N 29°19' W 094°47'0 0.0
2018-Jun-13 22:21N 29°19' W 094°47'0 0.0
2018-Jun-13 21:48N 29°19' W 094°47'0 0.0
2018-Jun-13 21:30N 29°19' W 094°47'0 0.0
2018-Jun-13 21:00N 29°19' W 094°47'0 0.0
2018-Jun-13 20:30N 29°19' W 094°47'0 0.0
2018-Jun-13 20:00N 29°19' W 094°47'0 0.0
2018-Jun-13 19:30N 29°19' W 094°47'6 3.1
2018-Jun-13 17:33N 29°13' W 094°48'1 9.2
2018-Jun-13 17:28N 29°13' W 094°49'4 9.3
2018-Jun-13 17:00N 29°10' W 094°53'5 9.8
2018-Jun-13 16:30N 29°07' W 094°57'5 9.9
2018-Jun-13 16:00N 29°04' W 095°02'5 9.9
2018-Jun-13 15:30N 29°01' W 095°06'5 9.9
2018-Jun-13 15:00N 28°58' W 095°11'6 8.4
2018-Jun-13 14:18N 28°55' W 095°16'4 1.1
2018-Jun-13 10:28N 28°56' W 095°12'4 8.7
2018-Jun-13 09:59N 28°59' W 095°08'4 9.2
2018-Jun-13 09:30N 29°02' W 095°04'4 8.9
2018-Jun-13 09:00N 29°05' W 095°01'4 8.8
2018-Jun-13 08:30N 29°07' W 094°56'5 9.1
2018-Jun-13 08:00N 29°10' W 094°52'5 9.4
2018-Jun-13 07:30N 29°13' W 094°48'7 3.7
2018-Jun-13 05:42N 29°19' W 094°47'0 0.1
2018-Jun-13 05:22N 29°19' W 094°47'0 0.0
2018-Jun-13 04:49N 29°19' W 094°47'0 0.0
2018-Jun-13 04:16N 29°19' W 094°47'0 0.0
2018-Jun-13 03:58N 29°19' W 094°47'0 0.0
2018-Jun-13 03:25N 29°19' W 094°47'0 0.0
2018-Jun-13 02:52N 29°19' W 094°47'0 0.0
2018-Jun-13 02:28N 29°19' W 094°47'0 0.0
2018-Jun-13 01:49N 29°19' W 094°47'0 0.0
2018-Jun-13 01:25N 29°19' W 094°47'0 0.0
2018-Jun-13 00:43N 29°19' W 094°47'0 0.0
2018-Jun-13 00:28N 29°19' W 094°47'0 0.0
2018-Jun-12 23:40N 29°19' W 094°47'0 0.0
2018-Jun-12 23:25N 29°19' W 094°47'0 0.0
2018-Jun-12 22:55N 29°19' W 094°47'0 0.0
2018-Jun-12 22:28N 29°19' W 094°47'0 0.0
2018-Jun-12 21:58N 29°19' W 094°47'0 0.0
2018-Jun-12 21:31N 29°19' W 094°47'0 0.0
2018-Jun-12 20:58N 29°19' W 094°47'0 0.0
2018-Jun-12 20:31N 29°19' W 094°47'6 1.6
2018-Jun-12 16:30N 29°22' W 094°53'0 0.2
2018-Jun-12 16:00N 29°22' W 094°53'6 0.4
2018-Jun-12 02:35N 29°21' W 094°47'1 6.7
2018-Jun-12 02:28N 29°21' W 094°46'2 3.4
2018-Jun-12 01:58N 29°19' W 094°47'0 0.0
2018-Jun-12 01:28N 29°19' W 094°47'0 0.0
2018-Jun-12 00:55N 29°19' W 094°47'0 0.0
2018-Jun-12 00:28N 29°19' W 094°47'0 0.0
2018-Jun-11 23:55N 29°19' W 094°47'0 0.0
2018-Jun-11 23:25N 29°19' W 094°47'0 0.0
2018-Jun-11 22:25N 29°19' W 094°47'0 0.0
2018-Jun-11 21:55N 29°19' W 094°47'  
Track history (hours):
 
Tides and Currents Weather Stations Pressure Air Temp Water Temp Dewpoint Dewpoint Depression Visibility Wind Speed Wind Dir Waves Ship Positions

The Deacon

Owner: G & H Towing Company, GALVESTON, TX. More information available from US FCC via Universal Licensing System and Coast Guard Vessel Documentation Center.

Last reported at 2018-Jun-21 21:29 UTC. Time now 2018-Jun-21 21:37 UTC.
Position N 29°19' W 094°47'.

Length 27 m; draft 5.2 m.

Type: Tug. MMSI: 366922110.

Date/timePositionNaut miles runAvg speedWind from/ knotsBaromVisibWave heightAir tempDewpointWater temp
2018-Jun-21 21:29N 29°19' W 094°47'0 0.0
2018-Jun-21 20:59N 29°19' W 094°47'0 0.0
2018-Jun-21 20:29N 29°19' W 094°47'0 0.0
2018-Jun-21 19:59N 29°19' W 094°47'0 0.0
2018-Jun-21 19:26N 29°19' W 094°47'0 0.0
2018-Jun-21 18:56N 29°19' W 094°47'0 0.0
2018-Jun-21 18:29N 29°19' W 094°47'0 0.0
2018-Jun-21 17:59N 29°19' W 094°47'2 4.6
2018-Jun-21 17:30N 29°21' W 094°47'5 8.5
2018-Jun-21 16:53N 29°22' W 094°53'0 0.1
2018-Jun-21 16:27N 29°22' W 094°53'2 3.5
2018-Jun-21 16:00N 29°23' W 094°52'5 9.3
2018-Jun-21 15:30N 29°21' W 094°47'2 0.5
2018-Jun-21 12:22N 29°19' W 094°47'0 0.7
2018-Jun-21 11:58N 29°19' W 094°47'0 0.0
2018-Jun-21 11:28N 29°19' W 094°47'0 0.0
2018-Jun-21 10:58N 29°19' W 094°47'0 0.0
2018-Jun-21 10:25N 29°19' W 094°47'0 0.0
2018-Jun-21 09:55N 29°19' W 094°47'0 0.0
2018-Jun-21 09:25N 29°19' W 094°47'0 0.0
2018-Jun-21 08:52N 29°19' W 094°47'0 0.0
2018-Jun-21 08:28N 29°19' W 094°47'0 0.0
2018-Jun-21 08:00N 29°19' W 094°47'0 0.0
2018-Jun-21 07:30N 29°19' W 094°47'0 0.0
2018-Jun-21 06:57N 29°19' W 094°47'1 2.2
2018-Jun-21 06:30N 29°19' W 094°48'1 1.2
2018-Jun-21 05:56N 29°18' W 094°49'0 0.5
2018-Jun-21 05:30N 29°19' W 094°49'2 0.7
2018-Jun-21 03:19N 29°19' W 094°47'6 2.5
2018-Jun-21 00:59N 29°13' W 094°47'5 7.9
2018-Jun-21 00:24N 29°11' W 094°52'3 8.0
2018-Jun-21 00:00N 29°09' W 094°55'4 7.9
2018-Jun-20 23:30N 29°07' W 094°59'4 7.7
2018-Jun-20 23:00N 29°05' W 095°02'4 7.3
2018-Jun-20 22:30N 29°02' W 095°05'4 8.0
2018-Jun-20 22:00N 28°60' W 095°09'4 8.3
2018-Jun-20 21:30N 28°57' W 095°12'31 1.7
2018-Jun-20 03:02N 29°19' W 094°47'0 0.5
2018-Jun-20 02:59N 29°19' W 094°47'6 6.2
2018-Jun-20 01:58N 29°22' W 094°54'1 1.7
2018-Jun-20 01:19N 29°22' W 094°55'1 1.6
2018-Jun-20 01:00N 29°22' W 094°54'1 0.4
2018-Jun-19 22:55N 29°22' W 094°53'0 0.1
2018-Jun-19 21:50N 29°22' W 094°53'1 1.4
2018-Jun-19 21:15N 29°23' W 094°53'1 5.2
2018-Jun-19 20:59N 29°23' W 094°52'1 0.8
2018-Jun-19 19:12N 29°22' W 094°53'0 1.5
2018-Jun-19 19:01N 29°23' W 094°53'0 0.3
2018-Jun-19 18:26N 29°23' W 094°53'0 0.0
2018-Jun-19 17:52N 29°23' W 094°53'1 1.8
2018-Jun-19 17:30N 29°22' W 094°53'0 0.3
2018-Jun-19 17:00N 29°22' W 094°53'1 0.3
2018-Jun-19 14:51N 29°23' W 094°54'1 2.2
2018-Jun-19 14:30N 29°22' W 094°53'0 0.1
2018-Jun-19 13:38N 29°22' W 094°54'0 0.0
2018-Jun-19 13:30N 29°22' W 094°54'0 0.1
2018-Jun-19 12:58N 29°22' W 094°53'6 0.9
2018-Jun-19 05:43N 29°19' W 094°47'1 6.1
2018-Jun-19 05:30N 29°20' W 094°46'1910.3
2018-Jun-19 03:37N 29°37' W 094°58'1 8.7
2018-Jun-19 03:30N 29°37' W 094°59'2 3.3
2018-Jun-19 02:54N 29°37' W 095°01'0 0.3
2018-Jun-19 02:28N 29°37' W 095°01'1 2.5
2018-Jun-19 02:00N 29°37' W 095°00'1 2.6
2018-Jun-19 01:28N 29°37' W 094°58'15 9.6
2018-Jun-18 23:56N 29°24' W 094°49'4 9.5
2018-Jun-18 23:31N 29°21' W 094°47'2 0.1
2018-Jun-18 03:54N 29°19' W 094°47'6 4.0
2018-Jun-18 02:16N 29°22' W 094°53'2 7.7
2018-Jun-18 02:01N 29°22' W 094°51'5 2.4
2018-Jun-17 23:57N 29°19' W 094°47'1 1.7
2018-Jun-17 23:22N 29°19' W 094°48'1 2.1
2018-Jun-17 23:00N 29°19' W 094°47'0 0.0
2018-Jun-17 17:02N 29°19' W 094°47'1 6.1
2018-Jun-17 16:56N 29°19' W 094°48'1 1.8
2018-Jun-17 16:30N 29°19' W 094°49'0 0.1
2018-Jun-17 16:00N 29°19' W 094°49'1 2.8
2018-Jun-17 15:29N 29°19' W 094°47'0 0.4
2018-Jun-17 15:00N 29°19' W 094°47'0 0.0
2018-Jun-17 00:13N 29°19' W 094°47'6 6.2
2018-Jun-16 23:14N 29°22' W 094°54'0 1.0
2018-Jun-16 22:59N 29°22' W 094°54'0 0.0
2018-Jun-16 22:28N 29°22' W 094°54'1 1.3
2018-Jun-16 21:41N 29°23' W 094°53'0 0.0
2018-Jun-16 21:26N 29°23' W 094°53'0 0.0
2018-Jun-16 20:20N 29°23' W 094°53'0 0.0
2018-Jun-16 19:39N 29°23' W 094°53'0 0.0
2018-Jun-16 00:04N 29°23' W 094°53'1 5.6
2018-Jun-15 23:58N 29°22' W 094°53'0 0.1
2018-Jun-15 23:30N 29°22' W 094°53'0 0.6
2018-Jun-15 23:00N 29°22' W 094°53'0 0.2
2018-Jun-15 20:25N 29°23' W 094°53'2 3.9
2018-Jun-15 19:56N 29°22' W 094°51'4 7.9
2018-Jun-15 19:30N 29°21' W 094°47'2 0.2
2018-Jun-15 10:15N 29°19' W 094°47'2 1.4
2018-Jun-15 09:09N 29°19' W 094°49'0 1.7
2018-Jun-15 09:00N 29°19' W 094°48'1 2.4
2018-Jun-15 08:28N 29°19' W 094°47'0 0.0
2018-Jun-15 07:23N 29°19' W 094°47'0 0.0
2018-Jun-15 05:32N 29°19' W 094°47'0 0.2
2018-Jun-15 05:30N 29°19' W 094°47'1 2.4
2018-Jun-15 05:00N 29°19' W 094°48'0 0.1
2018-Jun-15 04:30N 29°19' W 094°48'1 1.0
2018-Jun-15 04:00N 29°19' W 094°48'0 0.0
2018-Jun-14 23:58N 29°19' W 094°48'2 3.4
2018-Jun-14 23:29N 29°20' W 094°46'6 7.5
2018-Jun-14 22:38N 29°22' W 094°54'1 6.7
2018-Jun-14 22:29N 29°22' W 094°55'0 0.2
2018-Jun-14 21:46N 29°22' W 094°55'1 3.2
2018-Jun-14 21:28N 29°22' W 094°54'1 0.4
2018-Jun-14 18:50N 29°23' W 094°53'4 1.5
2018-Jun-14 16:26N 29°22' W 094°49'3 7.7
2018-Jun-14 16:00N 29°19' W 094°47'2 3.9
2018-Jun-14 15:29N 29°19' W 094°49'0 0.1
2018-Jun-14 15:00N 29°19' W 094°49'0 0.0
2018-Jun-14 14:30N 29°19' W 094°49'3 1.5
2018-Jun-14 12:11N 29°21' W 094°46'2 0.6
2018-Jun-14 09:23N 29°19' W 094°47'3 6.6
2018-Jun-14 08:52N 29°22' W 094°49'4 7.6
2018-Jun-14 08:24N 29°22' W 094°53'0 0.1
2018-Jun-14 08:00N 29°22' W 094°53'1 2.8
2018-Jun-14 07:30N 29°23' W 094°52'5 9.4
2018-Jun-14 07:00N 29°21' W 094°47'2 3.0
2018-Jun-14 06:27N 29°19' W 094°47'0 0.0
2018-Jun-14 06:00N 29°19' W 094°47'0 0.0
2018-Jun-14 05:27N 29°19' W 094°47'0 0.0
2018-Jun-14 04:57N 29°19' W 094°47'0 0.0
2018-Jun-14 04:24N 29°19' W 094°47'0 0.0
2018-Jun-14 04:00N 29°19' W 094°47'0 0.0
2018-Jun-14 03:27N 29°19' W 094°47'0 0.0
2018-Jun-14 02:48N 29°19' W 094°47'0 0.0
2018-Jun-14 02:27N 29°19' W 094°47'0 0.0
2018-Jun-14 02:00N 29°19' W 094°47'0 0.0
2018-Jun-14 01:24N 29°19' W 094°47'0 0.0
2018-Jun-14 01:00N 29°19' W 094°47'0 0.0
2018-Jun-14 00:30N 29°19' W 094°47'0 0.0
2018-Jun-13 23:57N 29°19' W 094°47'0 0.0
2018-Jun-13 23:30N 29°19' W 094°47'0 0.0
2018-Jun-13 23:00N 29°19' W 094°47'0 0.0
2018-Jun-13 22:21N 29°19' W 094°47'0 0.0
2018-Jun-13 21:48N 29°19' W 094°47'0 0.0
2018-Jun-13 21:30N 29°19' W 094°47'0 0.0
2018-Jun-13 21:00N 29°19' W 094°47'0 0.0
2018-Jun-13 20:30N 29°19' W 094°47'0 0.0
2018-Jun-13 20:00N 29°19' W 094°47'0 0.0
2018-Jun-13 19:30N 29°19' W 094°47'6 3.1
2018-Jun-13 17:33N 29°13' W 094°48'1 9.2
2018-Jun-13 17:28N 29°13' W 094°49'4 9.3
2018-Jun-13 17:00N 29°10' W 094°53'5 9.8
2018-Jun-13 16:30N 29°07' W 094°57'5 9.9
2018-Jun-13 16:00N 29°04' W 095°02'5 9.9
2018-Jun-13 15:30N 29°01' W 095°06'5 9.9
2018-Jun-13 15:00N 28°58' W 095°11'6 8.4
2018-Jun-13 14:18N 28°55' W 095°16'4 1.1
2018-Jun-13 10:28N 28°56' W 095°12'4 8.7
2018-Jun-13 09:59N 28°59' W 095°08'4 9.2
2018-Jun-13 09:30N 29°02' W 095°04'4 8.9
2018-Jun-13 09:00N 29°05' W 095°01'4 8.8
2018-Jun-13 08:30N 29°07' W 094°56'5 9.1
2018-Jun-13 08:00N 29°10' W 094°52'5 9.4
2018-Jun-13 07:30N 29°13' W 094°48'7 3.7
2018-Jun-13 05:42N 29°19' W 094°47'0 0.1
2018-Jun-13 05:22N 29°19' W 094°47'0 0.0
2018-Jun-13 04:49N 29°19' W 094°47'0 0.0
2018-Jun-13 04:16N 29°19' W 094°47'0 0.0
2018-Jun-13 03:58N 29°19' W 094°47'0 0.0
2018-Jun-13 03:25N 29°19' W 094°47'0 0.0
2018-Jun-13 02:52N 29°19' W 094°47'0 0.0
2018-Jun-13 02:28N 29°19' W 094°47'0 0.0
2018-Jun-13 01:49N 29°19' W 094°47'0 0.0
2018-Jun-13 01:25N 29°19' W 094°47'0 0.0
2018-Jun-13 00:43N 29°19' W 094°47'0 0.0
2018-Jun-13 00:28N 29°19' W 094°47'0 0.0
2018-Jun-12 23:40N 29°19' W 094°47'0 0.0
2018-Jun-12 23:25N 29°19' W 094°47'0 0.0
2018-Jun-12 22:55N 29°19' W 094°47'0 0.0
2018-Jun-12 22:28N 29°19' W 094°47'0 0.0
2018-Jun-12 21:58N 29°19' W 094°47'0 0.0
2018-Jun-12 21:31N 29°19' W 094°47'0 0.0
2018-Jun-12 20:58N 29°19' W 094°47'0 0.0
2018-Jun-12 20:31N 29°19' W 094°47'6 1.6
2018-Jun-12 16:30N 29°22' W 094°53'0 0.2
2018-Jun-12 16:00N 29°22' W 094°53'6 0.4
2018-Jun-12 02:35N 29°21' W 094°47'1 6.7
2018-Jun-12 02:28N 29°21' W 094°46'2 3.4
2018-Jun-12 01:58N 29°19' W 094°47'0 0.0
2018-Jun-12 01:28N 29°19' W 094°47'0 0.0
2018-Jun-12 00:55N 29°19' W 094°47'0 0.0
2018-Jun-12 00:28N 29°19' W 094°47'0 0.0
2018-Jun-11 23:55N 29°19' W 094°47'0 0.0
2018-Jun-11 23:25N 29°19' W 094°47'0 0.0
2018-Jun-11 22:25N 29°19' W 094°47'0 0.0
2018-Jun-11 21:55N 29°19' W 094°47'  

Dump ship's entire track history